createdAt,value
2018-11-03T00:03:23.885Z,9.40
2018-11-03T00:08:27.392Z,8.87
2018-11-03T00:13:51.937Z,8.30
2018-11-03T00:18:55.512Z,8.23
2018-11-03T00:23:59.479Z,8.33
2018-11-03T00:29:03.020Z,8.77
2018-11-03T00:34:06.854Z,9.00
2018-11-03T00:39:11.500Z,10.13
2018-11-03T00:44:15.042Z,8.90
2018-11-03T00:49:18.529Z,8.40
2018-11-03T00:54:22.138Z,9.10
2018-11-03T00:59:25.660Z,9.07
2018-11-03T01:04:29.170Z,9.40
2018-11-03T01:09:32.673Z,10.03
2018-11-03T01:14:36.289Z,10.90
2018-11-03T01:19:39.987Z,11.93
2018-11-03T01:24:43.590Z,12.20
2018-11-03T01:29:47.352Z,13.90
2018-11-03T01:34:50.932Z,13.77
2018-11-03T01:39:54.492Z,15.27
2018-11-03T01:44:58.018Z,13.87
2018-11-03T01:50:01.551Z,14.73
2018-11-03T01:55:06.044Z,15.13
2018-11-03T02:00:10.666Z,15.00
2018-11-03T02:05:14.167Z,15.20
2018-11-03T02:10:17.767Z,15.23
2018-11-03T02:15:21.396Z,15.93
2018-11-03T02:20:24.963Z,15.67
2018-11-03T02:25:28.472Z,15.90
2018-11-03T02:30:31.951Z,17.30
2018-11-03T02:35:35.529Z,16.47
2018-11-03T02:40:39.082Z,18.50
2018-11-03T02:45:42.649Z,16.67
2018-11-03T02:50:46.120Z,16.97
2018-11-03T02:55:49.901Z,19.10
2018-11-03T03:00:53.350Z,20.07
2018-11-03T03:05:56.963Z,20.80
2018-11-03T03:11:00.433Z,22.03
2018-11-03T03:16:04.462Z,21.10
2018-11-03T03:21:08.189Z,21.93
2018-11-03T03:26:11.660Z,22.23
2018-11-03T03:31:15.111Z,21.93
2018-11-03T03:36:18.667Z,20.83
2018-11-03T03:41:22.219Z,21.53
2018-11-03T03:46:25.937Z,21.43
2018-11-03T03:51:29.490Z,20.70
2018-11-03T03:56:32.966Z,21.20
2018-11-03T04:01:36.417Z,21.00
2018-11-03T04:06:39.867Z,19.83
2018-11-03T04:11:43.364Z,22.73
2018-11-03T04:16:46.873Z,21.97
2018-11-03T04:21:50.379Z,22.83
2018-11-03T04:26:53.864Z,22.27
2018-11-03T04:31:57.281Z,22.67
2018-11-03T04:37:00.730Z,21.57
2018-11-03T04:42:04.516Z,20.53
2018-11-03T04:47:07.993Z,22.43
2018-11-03T04:52:11.463Z,21.87
2018-11-03T04:57:14.916Z,21.67
2018-11-03T05:02:18.444Z,21.57
2018-11-03T05:07:21.917Z,21.57
2018-11-03T05:12:25.414Z,23.10
2018-11-03T05:17:28.976Z,22.97
2018-11-03T05:22:32.648Z,22.70
2018-11-03T05:27:36.132Z,23.67
2018-11-03T05:32:39.847Z,23.37
2018-11-03T05:37:43.257Z,23.70
2018-11-03T05:42:48.797Z,25.07
2018-11-03T05:47:52.311Z,27.03
2018-11-03T05:52:55.829Z,25.03
2018-11-03T05:57:59.483Z,25.47
2018-11-03T06:03:03.213Z,24.87
2018-11-03T06:08:06.727Z,25.77
2018-11-03T06:13:10.334Z,24.63
2018-11-03T06:18:13.813Z,26.07
2018-11-03T06:23:17.523Z,25.47
2018-11-03T06:28:20.984Z,26.87
2018-11-03T06:33:24.674Z,26.37
2018-11-03T06:38:28.392Z,26.03
2018-11-03T06:43:31.980Z,26.00
2018-11-03T06:48:35.752Z,27.07
2018-11-03T06:53:39.345Z,26.80
2018-11-03T06:58:43.125Z,27.07
2018-11-03T07:03:47.795Z,27.80
2018-11-03T07:08:51.695Z,27.40
2018-11-03T07:13:55.284Z,25.47
2018-11-03T07:18:58.844Z,24.90
2018-11-03T07:24:02.333Z,24.97
2018-11-03T07:29:05.972Z,25.37
2018-11-03T07:34:09.504Z,26.03
2018-11-03T07:39:13.093Z,26.37
2018-11-03T07:44:16.546Z,25.87
2018-11-03T07:49:20.213Z,25.93
2018-11-03T07:54:23.699Z,22.40
2018-11-03T07:59:27.628Z,21.50
2018-11-03T08:04:31.218Z,19.87
2018-11-03T08:09:34.707Z,18.87
2018-11-03T08:14:38.199Z,18.73
2018-11-03T08:19:44.033Z,18.13
2018-11-03T08:24:47.532Z,17.73
2018-11-03T08:29:51.054Z,16.80
2018-11-03T08:34:54.523Z,17.43
2018-11-03T08:39:58.396Z,16.93
2018-11-03T08:45:02.030Z,17.17
2018-11-03T08:50:07.919Z,16.87
2018-11-03T08:55:12.788Z,16.50
2018-11-03T09:00:17.093Z,14.80
2018-11-03T09:05:23.556Z,15.17
2018-11-03T09:10:28.066Z,14.37
2018-11-03T09:15:31.700Z,13.17
2018-11-03T09:20:35.282Z,12.63
2018-11-03T09:25:38.841Z,11.47
2018-11-03T09:30:42.350Z,10.50
2018-11-03T09:35:46.161Z,11.33
2018-11-03T09:40:49.914Z,9.43
2018-11-03T09:45:53.346Z,8.87
2018-11-03T09:50:56.878Z,8.80
2018-11-03T09:56:00.530Z,8.37
2018-11-03T10:01:04.089Z,7.50
2018-11-03T10:06:07.573Z,7.80
2018-11-03T10:11:11.103Z,6.70
2018-11-03T10:16:14.851Z,7.00
2018-11-03T10:21:18.521Z,6.30
2018-11-03T10:26:22.353Z,6.77
2018-11-03T10:31:25.870Z,6.80
2018-11-03T10:36:29.307Z,6.10
2018-11-03T10:41:32.893Z,5.47
2018-11-03T10:46:36.933Z,5.47
2018-11-03T10:51:40.636Z,5.87
2018-11-03T10:56:48.771Z,5.73
2018-11-03T11:01:57.825Z,5.17
2018-11-03T11:07:07.058Z,5.00
2018-11-03T11:12:16.004Z,4.30
2018-11-03T11:17:19.736Z,3.77
2018-11-03T11:22:23.392Z,3.80
2018-11-03T11:27:27.162Z,3.80
2018-11-03T11:32:30.657Z,4.53
2018-11-03T11:37:34.267Z,4.47
2018-11-03T11:42:38.034Z,4.90
2018-11-03T11:47:41.547Z,4.30
2018-11-03T11:52:45.178Z,4.07
2018-11-03T11:57:49.178Z,4.00
2018-11-03T12:02:53.053Z,3.93
2018-11-03T12:07:56.651Z,3.60
2018-11-03T12:13:00.232Z,3.07
2018-11-03T12:18:03.734Z,3.87
2018-11-03T12:23:07.398Z,3.63
2018-11-03T12:28:11.072Z,3.20
2018-11-03T12:33:14.926Z,3.17
2018-11-03T12:38:18.479Z,2.97
2018-11-03T12:43:22.012Z,3.87
2018-11-03T12:48:25.615Z,4.53
2018-11-03T12:53:29.176Z,4.50
2018-11-03T12:58:32.736Z,4.60
2018-11-03T13:03:36.242Z,3.80
2018-11-03T13:08:39.797Z,3.80
2018-11-03T13:13:43.266Z,3.30
2018-11-03T13:18:46.735Z,3.70
2018-11-03T13:23:50.298Z,3.60
2018-11-03T13:28:53.804Z,3.43
2018-11-03T13:33:57.350Z,3.20
2018-11-03T13:39:00.930Z,3.80
2018-11-03T13:44:04.912Z,3.70
2018-11-03T13:49:08.511Z,3.40
2018-11-03T13:54:12.056Z,3.73
2018-11-03T13:59:15.757Z,3.50
2018-11-03T14:04:19.220Z,3.57
2018-11-03T14:09:22.856Z,3.73
2018-11-03T14:14:26.474Z,3.93
2018-11-03T14:19:30.321Z,4.20
2018-11-03T14:24:34.186Z,3.90
2018-11-03T14:29:37.931Z,4.00
2018-11-03T14:34:41.878Z,3.50
2018-11-03T14:39:45.361Z,3.67
2018-11-03T14:44:48.947Z,3.50
2018-11-03T14:49:52.493Z,3.80
2018-11-03T14:54:56.038Z,3.67
2018-11-03T14:59:59.680Z,3.77
2018-11-03T15:05:03.326Z,3.63
2018-11-03T15:10:08.601Z,3.43
2018-11-03T15:15:14.360Z,3.50
2018-11-03T15:20:18.079Z,3.50
2018-11-03T15:25:21.660Z,3.67
2018-11-03T15:30:25.315Z,4.20
2018-11-03T15:35:29.127Z,4.10
2018-11-03T15:40:32.775Z,4.33
2018-11-03T15:45:36.292Z,3.80
2018-11-03T15:50:45.594Z,4.20
2018-11-03T15:55:49.177Z,5.50
2018-11-03T16:00:52.669Z,5.50
2018-11-03T16:05:56.220Z,8.50
2018-11-03T16:10:59.738Z,7.37
2018-11-03T16:16:03.312Z,5.97
2018-11-03T16:21:06.799Z,5.60
2018-11-03T16:26:10.318Z,5.30
2018-11-03T16:31:13.811Z,6.23
2018-11-03T16:36:17.245Z,5.63
2018-11-03T16:41:20.901Z,6.00
2018-11-03T16:46:24.354Z,7.40
2018-11-03T16:51:27.825Z,7.90
2018-11-03T16:56:31.482Z,9.20
2018-11-03T17:01:34.955Z,10.23
2018-11-03T17:06:38.705Z,9.73
2018-11-03T17:11:42.145Z,159.77
2018-11-03T17:16:45.694Z,131.13
2018-11-03T17:21:49.141Z,40.70
2018-11-03T17:26:52.747Z,40.07
2018-11-03T17:31:56.299Z,26.37
2018-11-03T17:37:00.114Z,19.30
2018-11-03T17:42:03.612Z,16.27
2018-11-03T17:47:07.856Z,13.17
2018-11-03T17:52:11.514Z,11.47
2018-11-03T17:57:15.114Z,11.43
2018-11-03T18:02:18.602Z,10.17
2018-11-03T18:07:22.335Z,9.77
2018-11-03T18:12:25.884Z,9.77
2018-11-03T18:17:29.560Z,9.80
2018-11-03T18:22:33.307Z,8.90
2018-11-03T18:27:37.477Z,9.33
2018-11-03T18:32:42.351Z,9.77
2018-11-03T18:37:45.880Z,8.50
2018-11-03T18:42:49.501Z,9.10
2018-11-03T18:47:53.080Z,9.27
2018-11-03T18:52:56.678Z,9.30
2018-11-03T18:58:00.206Z,9.07
2018-11-03T19:03:03.772Z,11.10
2018-11-03T19:08:07.580Z,10.30
2018-11-03T19:13:11.186Z,10.37
2018-11-03T19:18:14.674Z,10.30
2018-11-03T19:23:18.170Z,11.13
2018-11-03T19:28:21.739Z,9.87
2018-11-03T19:33:25.202Z,10.20
2018-11-03T19:38:28.684Z,10.53
2018-11-03T19:43:32.310Z,10.83
2018-11-03T19:48:35.944Z,10.93
2018-11-03T19:53:39.521Z,11.20
2018-11-03T19:58:43.459Z,11.13
2018-11-03T20:03:46.981Z,11.40
2018-11-03T20:08:50.497Z,10.93
2018-11-03T20:13:54.196Z,12.83
2018-11-03T20:18:57.849Z,12.80
2018-11-03T20:24:01.325Z,13.80
2018-11-03T20:29:04.908Z,14.67
2018-11-03T20:34:08.417Z,13.10
2018-11-03T20:39:11.855Z,13.33
2018-11-03T20:44:15.364Z,13.60
2018-11-03T20:49:18.916Z,13.13
2018-11-03T20:54:22.501Z,13.63
2018-11-03T20:59:26.050Z,14.67
2018-11-03T21:04:29.570Z,14.90
2018-11-03T21:09:33.122Z,16.17
2018-11-03T21:14:36.577Z,16.50
2018-11-03T21:19:40.042Z,15.70
2018-11-03T21:24:43.644Z,15.77
2018-11-03T21:29:47.315Z,16.73
2018-11-03T21:34:50.755Z,16.40
2018-11-03T21:39:55.099Z,15.30
2018-11-03T21:44:58.696Z,16.00
2018-11-03T21:50:02.302Z,15.17
2018-11-03T21:55:06.641Z,15.37
2018-11-03T22:00:11.597Z,18.30
2018-11-03T22:05:15.265Z,16.83
2018-11-03T22:10:19.311Z,16.00
2018-11-03T22:15:23.127Z,17.43
2018-11-03T22:20:26.592Z,16.60
2018-11-03T22:25:30.133Z,17.37
2018-11-03T22:30:33.769Z,18.40
2018-11-03T22:35:37.582Z,17.70
2018-11-03T22:40:41.080Z,18.80
2018-11-03T22:45:44.611Z,18.03
2018-11-03T22:50:48.067Z,18.60
2018-11-03T22:55:51.642Z,19.70
2018-11-03T23:00:56.100Z,19.60
2018-11-03T23:05:59.813Z,19.33
2018-11-03T23:11:03.407Z,20.13
2018-11-03T23:16:07.834Z,18.90
2018-11-03T23:21:11.411Z,18.47
2018-11-03T23:26:15.128Z,18.60
2018-11-03T23:31:18.703Z,16.70
2018-11-03T23:36:22.299Z,17.33
2018-11-03T23:41:25.888Z,16.00
2018-11-03T23:46:29.600Z,17.17
2018-11-03T23:51:34.430Z,17.73
2018-11-03T23:56:38.080Z,17.37
